sensor_id;sensor_type;location;lat;lon;timestamp;P1;durP1;ratioP1;P2;durP2;ratioP2
69847;SDS011;57143;55.940;37.496;2022-12-20T00:00:05;6.18;;;2.20;;
69847;SDS011;57143;55.940;37.496;2022-12-20T00:02:33;7.50;;;1.70;;
69847;SDS011;57143;55.940;37.496;2022-12-20T00:05:02;8.05;;;1.55;;
69847;SDS011;57143;55.940;37.496;2022-12-20T00:07:30;7.88;;;2.80;;
69847;SDS011;57143;55.940;37.496;2022-12-20T00:09:58;7.45;;;1.60;;
69847;SDS011;57143;55.940;37.496;2022-12-20T00:12:25;6.40;;;1.88;;
69847;SDS011;57143;55.940;37.496;2022-12-20T00:14:52;9.10;;;1.90;;
69847;SDS011;57143;55.940;37.496;2022-12-20T00:17:20;7.65;;;2.10;;
69847;SDS011;57143;55.940;37.496;2022-12-20T00:19:47;7.43;;;2.03;;
69847;SDS011;57143;55.940;37.496;2022-12-20T00:22:16;7.65;;;1.88;;
69847;SDS011;57143;55.940;37.496;2022-12-20T00:24:43;7.97;;;2.17;;
69847;SDS011;57143;55.940;37.496;2022-12-20T00:27:10;7.10;;;2.20;;
69847;SDS011;57143;55.940;37.496;2022-12-20T00:29:37;9.68;;;3.15;;
69847;SDS011;57143;55.940;37.496;2022-12-20T00:32:05;14.13;;;2.63;;
69847;SDS011;57143;55.940;37.496;2022-12-20T00:34:32;4.80;;;1.40;;
69847;SDS011;57143;55.940;37.496;2022-12-20T00:36:59;10.15;;;2.15;;
69847;SDS011;57143;55.940;37.496;2022-12-20T00:39:28;6.53;;;2.03;;
69847;SDS011;57143;55.940;37.496;2022-12-20T00:41:55;8.10;;;1.88;;
69847;SDS011;57143;55.940;37.496;2022-12-20T00:44:22;7.28;;;2.05;;
69847;SDS011;57143;55.940;37.496;2022-12-20T00:46:49;7.72;;;1.75;;
69847;SDS011;57143;55.940;37.496;2022-12-20T00:49:16;6.05;;;1.50;;
69847;SDS011;57143;55.940;37.496;2022-12-20T00:51:44;8.07;;;2.30;;
69847;SDS011;57143;55.940;37.496;2022-12-20T00:54:11;7.25;;;2.45;;
69847;SDS011;57143;55.940;37.496;2022-12-20T00:56:39;4.30;;;1.42;;
69847;SDS011;57143;55.940;37.496;2022-12-20T00:59:06;6.38;;;1.80;;
69847;SDS011;57143;55.940;37.496;2022-12-20T01:01:33;6.75;;;1.98;;
69847;SDS011;57143;55.940;37.496;2022-12-20T01:04:00;7.07;;;2.07;;
69847;SDS011;57143;55.940;37.496;2022-12-20T01:06:28;6.30;;;2.13;;
69847;SDS011;57143;55.940;37.496;2022-12-20T01:08:57;9.43;;;2.83;;
69847;SDS011;57143;55.940;37.496;2022-12-20T01:11:25;8.23;;;2.03;;
69847;SDS011;57143;55.940;37.496;2022-12-20T01:13:56;5.45;;;1.80;;
69847;SDS011;57143;55.940;37.496;2022-12-20T01:16:24;9.23;;;2.03;;
69847;SDS011;57143;55.940;37.496;2022-12-20T01:18:53;7.68;;;1.90;;
69847;SDS011;57143;55.940;37.496;2022-12-20T01:21:21;5.88;;;1.65;;
69847;SDS011;57143;55.940;37.496;2022-12-20T01:23:49;7.93;;;1.60;;
69847;SDS011;57143;55.940;37.496;2022-12-20T01:26:17;9.25;;;2.33;;
69847;SDS011;57143;55.940;37.496;2022-12-20T01:28:47;8.10;;;1.93;;
69847;SDS011;57143;55.940;37.496;2022-12-20T01:31:18;5.80;;;1.73;;
69847;SDS011;57143;55.940;37.496;2022-12-20T01:33:47;6.47;;;1.73;;
69847;SDS011;57143;55.940;37.496;2022-12-20T01:36:16;8.00;;;1.98;;
69847;SDS011;57143;55.940;37.496;2022-12-20T01:38:44;7.90;;;2.22;;
69847;SDS011;57143;55.940;37.496;2022-12-20T01:41:13;8.77;;;1.93;;
69847;SDS011;57143;55.940;37.496;2022-12-20T01:43:46;8.02;;;1.70;;
69847;SDS011;57143;55.940;37.496;2022-12-20T01:46:15;7.97;;;2.58;;
69847;SDS011;57143;55.940;37.496;2022-12-20T01:48:45;8.30;;;2.10;;
69847;SDS011;57143;55.940;37.496;2022-12-20T01:51:16;7.63;;;2.63;;
69847;SDS011;57143;55.940;37.496;2022-12-20T01:53:45;8.60;;;2.17;;
69847;SDS011;57143;55.940;37.496;2022-12-20T01:56:14;8.38;;;1.75;;
69847;SDS011;57143;55.940;37.496;2022-12-20T01:58:41;9.73;;;2.60;;
69847;SDS011;57143;55.940;37.496;2022-12-20T02:01:11;9.23;;;2.83;;
69847;SDS011;57143;55.940;37.496;2022-12-20T02:03:39;7.00;;;2.10;;
69847;SDS011;57143;55.940;37.496;2022-12-20T02:06:16;7.40;;;1.70;;
69847;SDS011;57143;55.940;37.496;2022-12-20T02:08:44;10.00;;;2.50;;
69847;SDS011;57143;55.940;37.496;2022-12-20T02:11:19;8.40;;;1.92;;
69847;SDS011;57143;55.940;37.496;2022-12-20T02:13:57;7.22;;;2.05;;
69847;SDS011;57143;55.940;37.496;2022-12-20T02:16:37;8.85;;;2.20;;
69847;SDS011;57143;55.940;37.496;2022-12-20T02:19:41;8.53;;;2.20;;
69847;SDS011;57143;55.940;37.496;2022-12-20T02:22:28;7.70;;;2.30;;
69847;SDS011;57143;55.940;37.496;2022-12-20T02:25:10;7.93;;;2.53;;
69847;SDS011;57143;55.940;37.496;2022-12-20T02:27:58;6.00;;;1.48;;
69847;SDS011;57143;55.940;37.496;2022-12-20T02:30:32;6.13;;;1.77;;
69847;SDS011;57143;55.940;37.496;2022-12-20T02:33:01;7.87;;;1.77;;
69847;SDS011;57143;55.940;37.496;2022-12-20T02:35:30;7.53;;;1.88;;
69847;SDS011;57143;55.940;37.496;2022-12-20T02:38:00;9.18;;;2.70;;
69847;SDS011;57143;55.940;37.496;2022-12-20T02:40:31;6.70;;;1.02;;
69847;SDS011;57143;55.940;37.496;2022-12-20T02:43:03;9.38;;;2.80;;
69847;SDS011;57143;55.940;37.496;2022-12-20T02:45:56;8.63;;;2.13;;
69847;SDS011;57143;55.940;37.496;2022-12-20T02:48:24;7.32;;;2.03;;
69847;SDS011;57143;55.940;37.496;2022-12-20T02:50:52;10.80;;;3.03;;
69847;SDS011;57143;55.940;37.496;2022-12-20T02:53:22;8.27;;;2.05;;
69847;SDS011;57143;55.940;37.496;2022-12-20T02:55:51;6.53;;;2.00;;
69847;SDS011;57143;55.940;37.496;2022-12-20T02:58:25;10.43;;;2.80;;
69847;SDS011;57143;55.940;37.496;2022-12-20T03:00:58;8.23;;;2.55;;
69847;SDS011;57143;55.940;37.496;2022-12-20T03:03:30;8.57;;;3.03;;
69847;SDS011;57143;55.940;37.496;2022-12-20T03:05:58;9.95;;;2.67;;
69847;SDS011;57143;55.940;37.496;2022-12-20T03:08:25;12.27;;;2.78;;
69847;SDS011;57143;55.940;37.496;2022-12-20T03:10:53;9.60;;;2.67;;
69847;SDS011;57143;55.940;37.496;2022-12-20T03:13:21;10.32;;;2.88;;
69847;SDS011;57143;55.940;37.496;2022-12-20T03:15:49;9.93;;;2.67;;
69847;SDS011;57143;55.940;37.496;2022-12-20T03:18:18;8.52;;;2.05;;
69847;SDS011;57143;55.940;37.496;2022-12-20T03:20:45;6.10;;;1.73;;
69847;SDS011;57143;55.940;37.496;2022-12-20T03:23:12;8.43;;;2.53;;
69847;SDS011;57143;55.940;37.496;2022-12-20T03:25:39;10.98;;;2.35;;
69847;SDS011;57143;55.940;37.496;2022-12-20T03:28:07;10.60;;;2.80;;
69847;SDS011;57143;55.940;37.496;2022-12-20T03:30:34;7.88;;;2.17;;
69847;SDS011;57143;55.940;37.496;2022-12-20T03:33:01;9.40;;;2.80;;
69847;SDS011;57143;55.940;37.496;2022-12-20T03:35:29;8.10;;;2.13;;
69847;SDS011;57143;55.940;37.496;2022-12-20T03:37:57;9.15;;;2.83;;
69847;SDS011;57143;55.940;37.496;2022-12-20T03:40:24;10.20;;;3.53;;
69847;SDS011;57143;55.940;37.496;2022-12-20T03:42:51;11.95;;;2.92;;
69847;SDS011;57143;55.940;37.496;2022-12-20T03:45:18;8.90;;;2.17;;
69847;SDS011;57143;55.940;37.496;2022-12-20T03:47:45;10.80;;;2.60;;
69847;SDS011;57143;55.940;37.496;2022-12-20T03:50:12;9.55;;;2.53;;
69847;SDS011;57143;55.940;37.496;2022-12-20T03:52:41;8.27;;;2.40;;
69847;SDS011;57143;55.940;37.496;2022-12-20T03:55:09;8.20;;;2.25;;
69847;SDS011;57143;55.940;37.496;2022-12-20T03:57:36;10.70;;;3.05;;
69847;SDS011;57143;55.940;37.496;2022-12-20T04:00:04;9.63;;;2.73;;
69847;SDS011;57143;55.940;37.496;2022-12-20T04:02:32;10.20;;;3.15;;
69847;SDS011;57143;55.940;37.496;2022-12-20T04:05:00;9.27;;;2.50;;
69847;SDS011;57143;55.940;37.496;2022-12-20T04:07:29;8.65;;;2.78;;
69847;SDS011;57143;55.940;37.496;2022-12-20T04:09:58;8.50;;;2.85;;
69847;SDS011;57143;55.940;37.496;2022-12-20T04:12:25;9.07;;;3.13;;
69847;SDS011;57143;55.940;37.496;2022-12-20T04:14:52;8.98;;;2.55;;
69847;SDS011;57143;55.940;37.496;2022-12-20T04:17:19;13.05;;;2.95;;
69847;SDS011;57143;55.940;37.496;2022-12-20T04:19:46;8.57;;;2.35;;
69847;SDS011;57143;55.940;37.496;2022-12-20T04:22:13;12.68;;;3.42;;
69847;SDS011;57143;55.940;37.496;2022-12-20T04:24:41;10.40;;;2.40;;
69847;SDS011;57143;55.940;37.496;2022-12-20T04:27:09;11.55;;;2.63;;
69847;SDS011;57143;55.940;37.496;2022-12-20T04:29:37;9.82;;;2.00;;
69847;SDS011;57143;55.940;37.496;2022-12-20T04:32:04;12.80;;;3.33;;
69847;SDS011;57143;55.940;37.496;2022-12-20T04:34:31;9.02;;;2.58;;
69847;SDS011;57143;55.940;37.496;2022-12-20T04:36:58;8.97;;;1.80;;
69847;SDS011;57143;55.940;37.496;2022-12-20T04:39:26;7.55;;;1.63;;
69847;SDS011;57143;55.940;37.496;2022-12-20T04:41:53;9.00;;;2.50;;
69847;SDS011;57143;55.940;37.496;2022-12-20T04:44:21;9.85;;;3.13;;
69847;SDS011;57143;55.940;37.496;2022-12-20T04:46:49;9.25;;;2.40;;
69847;SDS011;57143;55.940;37.496;2022-12-20T04:49:16;11.20;;;2.60;;
69847;SDS011;57143;55.940;37.496;2022-12-20T04:51:43;10.82;;;3.53;;
69847;SDS011;57143;55.940;37.496;2022-12-20T04:54:10;8.90;;;2.55;;
69847;SDS011;57143;55.940;37.496;2022-12-20T04:56:37;8.55;;;1.80;;
69847;SDS011;57143;55.940;37.496;2022-12-20T04:59:04;10.95;;;2.60;;
69847;SDS011;57143;55.940;37.496;2022-12-20T05:01:33;11.37;;;3.00;;
69847;SDS011;57143;55.940;37.496;2022-12-20T05:04:00;11.48;;;3.00;;
69847;SDS011;57143;55.940;37.496;2022-12-20T05:06:27;14.73;;;3.17;;
69847;SDS011;57143;55.940;37.496;2022-12-20T05:08:54;11.90;;;2.60;;
69847;SDS011;57143;55.940;37.496;2022-12-20T05:11:21;9.45;;;2.22;;
69847;SDS011;57143;55.940;37.496;2022-12-20T05:13:49;9.60;;;2.40;;
69847;SDS011;57143;55.940;37.496;2022-12-20T05:16:16;8.32;;;1.92;;
69847;SDS011;57143;55.940;37.496;2022-12-20T05:18:44;9.98;;;3.10;;
69847;SDS011;57143;55.940;37.496;2022-12-20T05:21:11;10.85;;;2.50;;
69847;SDS011;57143;55.940;37.496;2022-12-20T05:23:56;11.38;;;3.67;;
69847;SDS011;57143;55.940;37.496;2022-12-20T05:26:40;8.73;;;3.07;;
69847;SDS011;57143;55.940;37.496;2022-12-20T05:29:07;10.00;;;2.65;;
69847;SDS011;57143;55.940;37.496;2022-12-20T05:31:34;12.02;;;2.72;;
69847;SDS011;57143;55.940;37.496;2022-12-20T05:34:03;11.63;;;2.72;;
69847;SDS011;57143;55.940;37.496;2022-12-20T05:36:30;13.18;;;3.70;;
69847;SDS011;57143;55.940;37.496;2022-12-20T05:38:57;13.70;;;4.03;;
69847;SDS011;57143;55.940;37.496;2022-12-20T05:41:25;12.93;;;3.92;;
69847;SDS011;57143;55.940;37.496;2022-12-20T05:43:52;11.55;;;2.67;;
69847;SDS011;57143;55.940;37.496;2022-12-20T05:46:19;10.35;;;2.97;;
69847;SDS011;57143;55.940;37.496;2022-12-20T05:48:46;9.70;;;2.78;;
69847;SDS011;57143;55.940;37.496;2022-12-20T05:51:15;10.37;;;3.00;;
69847;SDS011;57143;55.940;37.496;2022-12-20T05:53:42;13.77;;;3.95;;
69847;SDS011;57143;55.940;37.496;2022-12-20T05:56:10;8.07;;;2.38;;
69847;SDS011;57143;55.940;37.496;2022-12-20T05:58:37;11.43;;;3.38;;
69847;SDS011;57143;55.940;37.496;2022-12-20T06:01:05;11.25;;;2.85;;
69847;SDS011;57143;55.940;37.496;2022-12-20T06:03:33;11.30;;;2.40;;
69847;SDS011;57143;55.940;37.496;2022-12-20T06:06:00;7.68;;;2.38;;
69847;SDS011;57143;55.940;37.496;2022-12-20T06:08:29;5.88;;;2.20;;
69847;SDS011;57143;55.940;37.496;2022-12-20T06:10:56;11.18;;;3.38;;
69847;SDS011;57143;55.940;37.496;2022-12-20T06:13:23;10.45;;;3.03;;
69847;SDS011;57143;55.940;37.496;2022-12-20T06:15:50;9.03;;;2.77;;
69847;SDS011;57143;55.940;37.496;2022-12-20T06:18:17;8.82;;;2.33;;
69847;SDS011;57143;55.940;37.496;2022-12-20T06:20:48;13.95;;;3.50;;
69847;SDS011;57143;55.940;37.496;2022-12-20T06:23:16;7.90;;;2.20;;
69847;SDS011;57143;55.940;37.496;2022-12-20T06:25:44;12.73;;;3.58;;
69847;SDS011;57143;55.940;37.496;2022-12-20T06:28:11;12.33;;;3.60;;
69847;SDS011;57143;55.940;37.496;2022-12-20T06:30:40;13.40;;;3.33;;
69847;SDS011;57143;55.940;37.496;2022-12-20T06:33:07;10.45;;;2.83;;
69847;SDS011;57143;55.940;37.496;2022-12-20T06:35:34;10.23;;;3.00;;
69847;SDS011;57143;55.940;37.496;2022-12-20T06:38:01;8.55;;;1.90;;
69847;SDS011;57143;55.940;37.496;2022-12-20T06:40:29;7.60;;;1.70;;
69847;SDS011;57143;55.940;37.496;2022-12-20T06:42:57;9.52;;;2.67;;
69847;SDS011;57143;55.940;37.496;2022-12-20T06:45:24;10.10;;;2.70;;
69847;SDS011;57143;55.940;37.496;2022-12-20T06:47:51;11.93;;;2.17;;
69847;SDS011;57143;55.940;37.496;2022-12-20T06:50:18;12.10;;;3.05;;
69847;SDS011;57143;55.940;37.496;2022-12-20T06:52:45;9.47;;;2.97;;
69847;SDS011;57143;55.940;37.496;2022-12-20T06:55:13;13.32;;;2.75;;
69847;SDS011;57143;55.940;37.496;2022-12-20T06:57:40;13.23;;;3.92;;
69847;SDS011;57143;55.940;37.496;2022-12-20T07:00:09;14.02;;;4.28;;
69847;SDS011;57143;55.940;37.496;2022-12-20T07:02:37;10.02;;;2.63;;
69847;SDS011;57143;55.940;37.496;2022-12-20T07:05:05;14.13;;;2.43;;
69847;SDS011;57143;55.940;37.496;2022-12-20T07:07:33;9.75;;;2.47;;
69847;SDS011;57143;55.940;37.496;2022-12-20T07:10:00;9.15;;;2.70;;
69847;SDS011;57143;55.940;37.496;2022-12-20T07:12:28;7.68;;;2.22;;
69847;SDS011;57143;55.940;37.496;2022-12-20T07:14:57;8.48;;;2.80;;
69847;SDS011;57143;55.940;37.496;2022-12-20T07:17:26;7.23;;;2.40;;
69847;SDS011;57143;55.940;37.496;2022-12-20T07:19:53;15.38;;;2.55;;
69847;SDS011;57143;55.940;37.496;2022-12-20T07:22:20;11.30;;;2.05;;
69847;SDS011;57143;55.940;37.496;2022-12-20T07:24:47;8.30;;;2.22;;
69847;SDS011;57143;55.940;37.496;2022-12-20T07:27:14;7.55;;;1.83;;
69847;SDS011;57143;55.940;37.496;2022-12-20T07:29:41;5.87;;;1.20;;
69847;SDS011;57143;55.940;37.496;2022-12-20T07:32:09;7.05;;;1.65;;
69847;SDS011;57143;55.940;37.496;2022-12-20T07:34:39;6.90;;;1.52;;
69847;SDS011;57143;55.940;37.496;2022-12-20T07:37:06;7.68;;;2.20;;
69847;SDS011;57143;55.940;37.496;2022-12-20T07:39:34;5.15;;;1.10;;
69847;SDS011;57143;55.940;37.496;2022-12-20T07:42:01;5.83;;;1.30;;
69847;SDS011;57143;55.940;37.496;2022-12-20T07:44:28;5.28;;;1.23;;
69847;SDS011;57143;55.940;37.496;2022-12-20T07:46:55;8.18;;;1.48;;
69847;SDS011;57143;55.940;37.496;2022-12-20T07:49:22;8.80;;;1.67;;
69847;SDS011;57143;55.940;37.496;2022-12-20T07:51:51;6.25;;;1.20;;
69847;SDS011;57143;55.940;37.496;2022-12-20T07:54:23;5.57;;;1.40;;
69847;SDS011;57143;55.940;37.496;2022-12-20T07:56:54;10.80;;;1.85;;
69847;SDS011;57143;55.940;37.496;2022-12-20T07:59:25;7.63;;;2.15;;
69847;SDS011;57143;55.940;37.496;2022-12-20T08:01:56;8.13;;;1.90;;
69847;SDS011;57143;55.940;37.496;2022-12-20T08:04:24;7.40;;;1.50;;
69847;SDS011;57143;55.940;37.496;2022-12-20T08:06:56;5.77;;;1.60;;
69847;SDS011;57143;55.940;37.496;2022-12-20T08:09:26;5.53;;;1.35;;
69847;SDS011;57143;55.940;37.496;2022-12-20T08:11:56;6.07;;;1.50;;
69847;SDS011;57143;55.940;37.496;2022-12-20T08:14:24;7.32;;;1.60;;
69847;SDS011;57143;55.940;37.496;2022-12-20T08:16:52;6.35;;;1.58;;
69847;SDS011;57143;55.940;37.496;2022-12-20T08:19:19;5.20;;;1.30;;
69847;SDS011;57143;55.940;37.496;2022-12-20T08:21:46;5.68;;;1.33;;
69847;SDS011;57143;55.940;37.496;2022-12-20T08:24:15;5.18;;;1.23;;
69847;SDS011;57143;55.940;37.496;2022-12-20T08:26:42;8.15;;;1.63;;
69847;SDS011;57143;55.940;37.496;2022-12-20T08:29:09;6.55;;;1.60;;
69847;SDS011;57143;55.940;37.496;2022-12-20T08:31:36;5.97;;;1.30;;
69847;SDS011;57143;55.940;37.496;2022-12-20T08:34:04;6.28;;;1.60;;
69847;SDS011;57143;55.940;37.496;2022-12-20T08:36:31;8.38;;;2.03;;
69847;SDS011;57143;55.940;37.496;2022-12-20T08:39:00;6.20;;;1.60;;
69847;SDS011;57143;55.940;37.496;2022-12-20T08:41:29;4.15;;;0.95;;
69847;SDS011;57143;55.940;37.496;2022-12-20T08:43:57;7.87;;;1.33;;
69847;SDS011;57143;55.940;37.496;2022-12-20T08:46:24;7.85;;;1.52;;
69847;SDS011;57143;55.940;37.496;2022-12-20T08:48:51;9.38;;;1.30;;
69847;SDS011;57143;55.940;37.496;2022-12-20T08:51:18;6.45;;;1.42;;
69847;SDS011;57143;55.940;37.496;2022-12-20T08:53:46;4.10;;;1.23;;
69847;SDS011;57143;55.940;37.496;2022-12-20T08:56:13;6.13;;;1.23;;
69847;SDS011;57143;55.940;37.496;2022-12-20T08:58:44;5.50;;;1.13;;
69847;SDS011;57143;55.940;37.496;2022-12-20T09:01:12;6.70;;;1.10;;
69847;SDS011;57143;55.940;37.496;2022-12-20T09:03:41;10.50;;;2.67;;
69847;SDS011;57143;55.940;37.496;2022-12-20T09:06:09;5.35;;;1.08;;
69847;SDS011;57143;55.940;37.496;2022-12-20T09:08:38;6.17;;;1.57;;
69847;SDS011;57143;55.940;37.496;2022-12-20T09:11:06;6.13;;;1.75;;
69847;SDS011;57143;55.940;37.496;2022-12-20T09:13:35;10.48;;;2.50;;
69847;SDS011;57143;55.940;37.496;2022-12-20T09:16:04;5.97;;;1.40;;
69847;SDS011;57143;55.940;37.496;2022-12-20T09:18:32;7.88;;;2.10;;
69847;SDS011;57143;55.940;37.496;2022-12-20T09:21:00;7.07;;;1.83;;
69847;SDS011;57143;55.940;37.496;2022-12-20T09:23:29;5.43;;;1.73;;
69847;SDS011;57143;55.940;37.496;2022-12-20T09:26:00;6.13;;;1.75;;
69847;SDS011;57143;55.940;37.496;2022-12-20T09:28:28;6.50;;;1.65;;
69847;SDS011;57143;55.940;37.496;2022-12-20T09:30:56;7.57;;;2.00;;
69847;SDS011;57143;55.940;37.496;2022-12-20T09:33:25;7.37;;;1.57;;
69847;SDS011;57143;55.940;37.496;2022-12-20T09:35:53;7.15;;;1.77;;
69847;SDS011;57143;55.940;37.496;2022-12-20T09:38:20;8.38;;;1.50;;
69847;SDS011;57143;55.940;37.496;2022-12-20T09:40:48;6.85;;;1.88;;
69847;SDS011;57143;55.940;37.496;2022-12-20T09:43:17;7.55;;;2.20;;
69847;SDS011;57143;55.940;37.496;2022-12-20T09:45:46;9.13;;;2.13;;
69847;SDS011;57143;55.940;37.496;2022-12-20T09:48:17;6.07;;;1.25;;
69847;SDS011;57143;55.940;37.496;2022-12-20T09:50:50;7.80;;;2.40;;
69847;SDS011;57143;55.940;37.496;2022-12-20T09:53:27;8.15;;;1.65;;
69847;SDS011;57143;55.940;37.496;2022-12-20T09:56:07;7.60;;;1.88;;
69847;SDS011;57143;55.940;37.496;2022-12-20T09:58:43;6.67;;;2.03;;
69847;SDS011;57143;55.940;37.496;2022-12-20T10:01:24;10.98;;;2.30;;
69847;SDS011;57143;55.940;37.496;2022-12-20T10:03:55;9.52;;;2.50;;
69847;SDS011;57143;55.940;37.496;2022-12-20T10:06:28;7.50;;;2.03;;
69847;SDS011;57143;55.940;37.496;2022-12-20T10:09:09;7.72;;;1.90;;
69847;SDS011;57143;55.940;37.496;2022-12-20T10:11:48;7.57;;;1.50;;
69847;SDS011;57143;55.940;37.496;2022-12-20T10:17:22;6.60;;;2.00;;
69847;SDS011;57143;55.940;37.496;2022-12-20T10:20:03;5.95;;;1.65;;
69847;SDS011;57143;55.940;37.496;2022-12-20T10:22:47;7.00;;;1.85;;
69847;SDS011;57143;55.940;37.496;2022-12-20T10:25:20;5.67;;;1.77;;
69847;SDS011;57143;55.940;37.496;2022-12-20T10:27:50;7.20;;;1.63;;
69847;SDS011;57143;55.940;37.496;2022-12-20T10:30:22;8.73;;;1.65;;
69847;SDS011;57143;55.940;37.496;2022-12-20T10:32:50;8.00;;;1.67;;
69847;SDS011;57143;55.940;37.496;2022-12-20T10:35:23;11.02;;;2.58;;
69847;SDS011;57143;55.940;37.496;2022-12-20T10:38:00;6.30;;;1.70;;
69847;SDS011;57143;55.940;37.496;2022-12-20T10:40:29;9.82;;;1.75;;
69847;SDS011;57143;55.940;37.496;2022-12-20T10:42:58;9.88;;;2.42;;
69847;SDS011;57143;55.940;37.496;2022-12-20T10:45:31;8.27;;;2.20;;
69847;SDS011;57143;55.940;37.496;2022-12-20T10:48:02;7.78;;;2.10;;
69847;SDS011;57143;55.940;37.496;2022-12-20T10:50:31;7.00;;;1.67;;
69847;SDS011;57143;55.940;37.496;2022-12-20T10:55:49;7.07;;;2.08;;
69847;SDS011;57143;55.940;37.496;2022-12-20T10:58:20;8.00;;;1.85;;
69847;SDS011;57143;55.940;37.496;2022-12-20T11:01:02;9.50;;;1.70;;
69847;SDS011;57143;55.940;37.496;2022-12-20T11:03:31;8.47;;;1.90;;
69847;SDS011;57143;55.940;37.496;2022-12-20T11:05:58;7.97;;;2.33;;
69847;SDS011;57143;55.940;37.496;2022-12-20T11:08:29;7.40;;;2.17;;
69847;SDS011;57143;55.940;37.496;2022-12-20T11:11:11;10.27;;;1.80;;
69847;SDS011;57143;55.940;37.496;2022-12-20T11:13:41;8.40;;;1.67;;
69847;SDS011;57143;55.940;37.496;2022-12-20T11:21:58;8.07;;;1.63;;
69847;SDS011;57143;55.940;37.496;2022-12-20T11:24:37;6.43;;;1.67;;
69847;SDS011;57143;55.940;37.496;2022-12-20T11:27:15;7.38;;;1.30;;
69847;SDS011;57143;55.940;37.496;2022-12-20T11:29:58;7.13;;;1.90;;
69847;SDS011;57143;55.940;37.496;2022-12-20T11:32:38;9.00;;;1.85;;
69847;SDS011;57143;55.940;37.496;2022-12-20T11:35:17;6.72;;;1.77;;
69847;SDS011;57143;55.940;37.496;2022-12-20T11:37:51;7.70;;;1.85;;
69847;SDS011;57143;55.940;37.496;2022-12-20T11:40:28;6.97;;;1.40;;
69847;SDS011;57143;55.940;37.496;2022-12-20T11:42:59;6.70;;;1.50;;
69847;SDS011;57143;55.940;37.496;2022-12-20T11:45:38;6.18;;;1.45;;
69847;SDS011;57143;55.940;37.496;2022-12-20T11:48:16;5.05;;;1.52;;
69847;SDS011;57143;55.940;37.496;2022-12-20T11:50:57;8.77;;;1.65;;
69847;SDS011;57143;55.940;37.496;2022-12-20T11:53:31;5.18;;;1.23;;
69847;SDS011;57143;55.940;37.496;2022-12-20T11:56:05;6.47;;;1.37;;
69847;SDS011;57143;55.940;37.496;2022-12-20T11:58:43;6.72;;;1.52;;
69847;SDS011;57143;55.940;37.496;2022-12-20T12:01:15;6.28;;;1.38;;
69847;SDS011;57143;55.940;37.496;2022-12-20T12:03:46;7.85;;;1.58;;
69847;SDS011;57143;55.940;37.496;2022-12-20T12:06:24;7.60;;;1.40;;
69847;SDS011;57143;55.940;37.496;2022-12-20T12:09:04;6.83;;;1.63;;
69847;SDS011;57143;55.940;37.496;2022-12-20T12:11:41;6.00;;;1.17;;
69847;SDS011;57143;55.940;37.496;2022-12-20T12:14:15;9.55;;;1.75;;
69847;SDS011;57143;55.940;37.496;2022-12-20T12:16:49;7.57;;;1.70;;
69847;SDS011;57143;55.940;37.496;2022-12-20T12:19:22;4.32;;;1.00;;
69847;SDS011;57143;55.940;37.496;2022-12-20T12:21:55;7.47;;;2.07;;
69847;SDS011;57143;55.940;37.496;2022-12-20T12:24:28;3.38;;;0.75;;
69847;SDS011;57143;55.940;37.496;2022-12-20T12:27:00;5.70;;;1.00;;
69847;SDS011;57143;55.940;37.496;2022-12-20T12:29:28;7.60;;;1.55;;
69847;SDS011;57143;55.940;37.496;2022-12-20T12:31:59;7.63;;;1.60;;
69847;SDS011;57143;55.940;37.496;2022-12-20T12:34:41;3.67;;;0.60;;
69847;SDS011;57143;55.940;37.496;2022-12-20T12:37:24;7.75;;;1.20;;
69847;SDS011;57143;55.940;37.496;2022-12-20T12:46:16;4.70;;;0.82;;
69847;SDS011;57143;55.940;37.496;2022-12-20T12:48:50;10.00;;;2.33;;
69847;SDS011;57143;55.940;37.496;2022-12-20T12:51:22;4.45;;;0.88;;
69847;SDS011;57143;55.940;37.496;2022-12-20T12:54:00;3.00;;;0.90;;
69847;SDS011;57143;55.940;37.496;2022-12-20T12:56:39;6.38;;;1.45;;
69847;SDS011;57143;55.940;37.496;2022-12-20T12:59:22;5.82;;;1.27;;
69847;SDS011;57143;55.940;37.496;2022-12-20T13:02:32;5.87;;;1.10;;
69847;SDS011;57143;55.940;37.496;2022-12-20T13:07:57;5.55;;;1.13;;
69847;SDS011;57143;55.940;37.496;2022-12-20T13:13:26;7.50;;;1.70;;
69847;SDS011;57143;55.940;37.496;2022-12-20T13:16:10;5.53;;;1.10;;
69847;SDS011;57143;55.940;37.496;2022-12-20T13:21:41;2.08;;;0.60;;
69847;SDS011;57143;55.940;37.496;2022-12-20T13:27:29;5.95;;;1.45;;
69847;SDS011;57143;55.940;37.496;2022-12-20T13:30:01;3.97;;;0.70;;
69847;SDS011;57143;55.940;37.496;2022-12-20T13:32:56;7.65;;;1.42;;
69847;SDS011;57143;55.940;37.496;2022-12-20T13:35:55;5.03;;;1.23;;
69847;SDS011;57143;55.940;37.496;2022-12-20T13:38:37;7.88;;;1.65;;
69847;SDS011;57143;55.940;37.496;2022-12-20T13:41:18;6.05;;;0.98;;
69847;SDS011;57143;55.940;37.496;2022-12-20T13:43:52;8.30;;;2.47;;
69847;SDS011;57143;55.940;37.496;2022-12-20T13:46:24;7.15;;;1.92;;
69847;SDS011;57143;55.940;37.496;2022-12-20T13:48:58;5.00;;;0.90;;
69847;SDS011;57143;55.940;37.496;2022-12-20T13:51:29;5.55;;;1.50;;
69847;SDS011;57143;55.940;37.496;2022-12-20T13:53:56;9.32;;;2.05;;
69847;SDS011;57143;55.940;37.496;2022-12-20T13:56:33;8.07;;;1.90;;
69847;SDS011;57143;55.940;37.496;2022-12-20T13:59:04;8.20;;;2.10;;
69847;SDS011;57143;55.940;37.496;2022-12-20T14:01:38;3.58;;;0.90;;
69847;SDS011;57143;55.940;37.496;2022-12-20T14:04:15;6.85;;;1.58;;
69847;SDS011;57143;55.940;37.496;2022-12-20T14:06:43;6.90;;;1.58;;
69847;SDS011;57143;55.940;37.496;2022-12-20T14:09:30;6.87;;;1.57;;
69847;SDS011;57143;55.940;37.496;2022-12-20T14:12:03;5.55;;;1.50;;
69847;SDS011;57143;55.940;37.496;2022-12-20T14:14:35;4.45;;;1.73;;
69847;SDS011;57143;55.940;37.496;2022-12-20T14:17:15;7.78;;;1.73;;
69847;SDS011;57143;55.940;37.496;2022-12-20T14:19:45;4.20;;;1.00;;
69847;SDS011;57143;55.940;37.496;2022-12-20T14:22:12;5.17;;;1.10;;
69847;SDS011;57143;55.940;37.496;2022-12-20T14:24:40;9.35;;;1.70;;
69847;SDS011;57143;55.940;37.496;2022-12-20T14:27:10;5.15;;;1.38;;
69847;SDS011;57143;55.940;37.496;2022-12-20T14:29:39;2.67;;;0.82;;
69847;SDS011;57143;55.940;37.496;2022-12-20T14:32:16;7.95;;;1.50;;
69847;SDS011;57143;55.940;37.496;2022-12-20T14:34:45;6.57;;;1.23;;
69847;SDS011;57143;55.940;37.496;2022-12-20T14:37:16;6.47;;;1.52;;
69847;SDS011;57143;55.940;37.496;2022-12-20T14:39:53;8.80;;;1.98;;
69847;SDS011;57143;55.940;37.496;2022-12-20T14:42:21;7.90;;;1.75;;
69847;SDS011;57143;55.940;37.496;2022-12-20T14:44:48;7.32;;;1.65;;
69847;SDS011;57143;55.940;37.496;2022-12-20T14:47:17;7.23;;;1.97;;
69847;SDS011;57143;55.940;37.496;2022-12-20T14:49:51;9.43;;;1.70;;
69847;SDS011;57143;55.940;37.496;2022-12-20T14:52:25;7.47;;;1.75;;
69847;SDS011;57143;55.940;37.496;2022-12-20T14:54:59;8.43;;;2.03;;
69847;SDS011;57143;55.940;37.496;2022-12-20T14:57:37;7.05;;;1.90;;
69847;SDS011;57143;55.940;37.496;2022-12-20T15:00:11;7.30;;;1.87;;
69847;SDS011;57143;55.940;37.496;2022-12-20T15:02:47;8.32;;;1.75;;
69847;SDS011;57143;55.940;37.496;2022-12-20T15:08:12;7.20;;;1.70;;
69847;SDS011;57143;55.940;37.496;2022-12-20T15:10:41;5.65;;;1.48;;
69847;SDS011;57143;55.940;37.496;2022-12-20T15:13:13;8.07;;;1.60;;
69847;SDS011;57143;55.940;37.496;2022-12-20T15:15:41;7.45;;;1.60;;
69847;SDS011;57143;55.940;37.496;2022-12-20T15:18:11;7.40;;;1.33;;
69847;SDS011;57143;55.940;37.496;2022-12-20T15:20:40;9.27;;;2.40;;
69847;SDS011;57143;55.940;37.496;2022-12-20T15:23:12;6.90;;;2.00;;